Time;durP1;ratioP1;P1;durP2;ratioP2;P2;SDS_P1;SDS_P2;PMS_P1;PMS_P2;Temp;Humidity;BMP_temperature;BMP_pressure;BME280_temperature;BME280_humidity;BME280_pressure;Samples;Min_cycle;Max_cycle;Signal;HPM_P1;HPM_P2
2023/06/17 00:01:44;;;;;;;6.07;4.47;;;;;;;25.55;55.29;100910.00;5094062;28;20071;-50
2023/06/17 00:04:12;;;;;;;6.35;4.43;;;;;;;25.54;55.32;100914.56;5093614;28;20055;-49
2023/06/17 00:06:39;;;;;;;4.95;4.20;;;;;;;25.55;55.53;100904.56;5095353;28;20392;-50
2023/06/17 00:09:07;;;;;;;6.70;3.95;;;;;;;25.55;55.44;100900.00;5095053;28;20051;-50
2023/06/17 00:11:34;;;;;;;5.05;4.20;;;;;;;25.56;55.27;100890.00;5095075;28;20044;-49
2023/06/17 00:14:02;;;;;;;5.25;3.72;;;;;;;25.56;55.30;100888.16;5095010;28;20059;-57
2023/06/17 00:16:32;;;;;;;6.47;4.10;;;;;;;25.55;55.28;100889.16;5093823;28;20043;-57
2023/06/17 00:19:00;;;;;;;5.93;4.00;;;;;;;25.55;55.25;100889.16;5095046;28;20059;-57
2023/06/17 00:21:27;;;;;;;4.53;3.72;;;;;;;25.56;55.13;100893.56;5095425;28;20044;-57
2023/06/17 00:23:54;;;;;;;5.07;4.22;;;;;;;25.57;55.25;100889.00;5095008;28;20511;-58
2023/06/17 00:26:23;;;;;;;4.47;3.65;;;;;;;25.57;55.14;100892.56;5094780;28;20051;-57
2023/06/17 00:28:50;;;;;;;4.45;3.75;;;;;;;25.57;55.15;100897.13;5093799;28;20047;-57
2023/06/17 00:31:17;;;;;;;4.25;3.75;;;;;;;25.57;55.23;100897.97;5095116;28;20055;-49
2023/06/17 00:33:45;;;;;;;4.55;3.35;;;;;;;25.56;55.26;100888.16;5094787;28;20040;-49
2023/06/17 00:36:12;;;;;;;6.85;3.60;;;;;;;25.57;55.26;100884.41;5093475;28;20055;-51
2023/06/17 00:38:40;;;;;;;5.18;3.55;;;;;;;25.58;55.34;100872.56;5094835;28;20040;-51
2023/06/17 00:41:07;;;;;;;4.60;3.63;;;;;;;25.58;55.39;100867.13;5093448;28;20515;-57
2023/06/17 00:43:35;;;;;;;4.43;3.50;;;;;;;25.60;55.49;100875.06;5093099;28;20514;-57
2023/06/17 00:46:02;;;;;;;5.30;4.13;;;;;;;25.60;55.38;100875.06;5093669;28;20522;-57
2023/06/17 00:48:30;;;;;;;7.13;3.88;;;;;;;25.60;55.46;100877.78;5093188;28;20047;-57
2023/06/17 00:51:02;;;;;;;5.30;4.28;;;;;;;25.59;55.60;100873.38;5092942;28;20044;-57
2023/06/17 00:53:30;;;;;;;4.25;3.60;;;;;;;25.60;55.52;100880.50;5094512;28;20436;-56
2023/06/17 00:55:58;;;;;;;4.68;3.75;;;;;;;25.60;55.49;100881.38;5092496;28;20522;-57
2023/06/17 00:58:26;;;;;;;5.53;3.72;;;;;;;25.60;55.63;100884.09;5093775;28;20048;-57
2023/06/17 01:00:53;;;;;;;4.95;3.60;;;;;;;25.60;55.71;100881.38;5093522;28;20044;-49
2023/06/17 01:03:22;;;;;;;4.75;3.50;;;;;;;25.61;55.42;100882.22;5094003;28;20048;-49
2023/06/17 01:05:56;;;;;;;4.80;3.78;;;;;;;25.61;55.65;100877.63;5093703;28;20040;-50
2023/06/17 01:08:33;;;;;;;4.32;3.33;;;;;;;25.61;55.74;100880.34;5092978;28;20060;-49
2023/06/17 01:11:06;;;;;;;5.28;4.05;;;;;;;25.62;55.48;100875.75;5093538;28;20044;-57
2023/06/17 01:13:35;;;;;;;5.65;3.58;;;;;;;25.61;55.84;100879.50;5093933;28;20055;-57
2023/06/17 01:16:03;;;;;;;4.55;3.75;;;;;;;25.60;55.69;100867.81;5092953;28;20510;-57
2023/06/17 01:18:32;;;;;;;4.70;3.90;;;;;;;25.61;55.71;100865.94;5092893;28;20055;-57
2023/06/17 01:21:03;;;;;;;4.85;3.30;;;;;;;25.60;55.84;100870.53;5094022;28;20048;-49
2023/06/17 01:23:34;;;;;;;6.40;3.53;;;;;;;25.61;55.66;100866.78;5094420;28;20066;-49
2023/06/17 01:26:02;;;;;;;5.30;3.83;;;;;;;25.61;55.58;100872.22;5093302;28;20040;-50
2023/06/17 01:28:33;;;;;;;4.63;4.00;;;;;;;25.61;55.69;100871.38;5093393;28;20503;-51
2023/06/17 01:31:00;;;;;;;7.22;3.53;;;;;;;25.62;55.82;100878.47;5092989;28;20055;-57
2023/06/17 01:33:28;;;;;;;6.55;4.07;;;;;;;25.61;55.76;100888.47;5093610;28;20048;-58
2023/06/17 01:36:04;;;;;;;4.90;3.75;;;;;;;25.62;55.64;100879.31;5093952;28;20052;-58
2023/06/17 01:38:41;;;;;;;5.25;3.30;;;;;;;25.61;55.93;100879.50;5092518;28;20063;-57
2023/06/17 01:41:13;;;;;;;4.40;3.45;;;;;;;25.62;55.77;100889.31;5093409;28;20055;-57
2023/06/17 01:43:43;;;;;;;5.93;3.67;;;;;;;25.61;55.68;100883.06;5092873;28;20487;-57
2023/06/17 01:46:14;;;;;;;6.10;4.10;;;;;;;25.61;55.57;100884.94;5092238;28;20103;-57
2023/06/17 01:48:42;;;;;;;5.25;3.30;;;;;;;25.60;55.41;100884.09;5092746;28;20032;-58
2023/06/17 01:51:09;;;;;;;5.78;3.88;;;;;;;25.60;55.40;100886.78;5092569;28;20047;-57
2023/06/17 01:53:37;;;;;;;7.03;4.07;;;;;;;25.60;55.45;100884.09;5092239;28;20052;-57
2023/06/17 01:56:05;;;;;;;6.10;3.88;;;;;;;25.59;55.28;100884.22;5092173;28;20067;-57
2023/06/17 01:58:32;;;;;;;5.28;3.47;;;;;;;25.59;55.28;100895.06;5091919;28;20484;-57
2023/06/17 02:00:59;;;;;;;5.40;4.00;;;;;;;25.58;55.22;100891.53;5093164;28;20391;-50
2023/06/17 02:03:27;;;;;;;6.13;3.58;;;;;;;25.58;55.26;100882.56;5108866;28;20412;-51
2023/06/17 02:05:55;;;;;;;6.90;3.88;;;;;;;25.58;55.23;100882.56;5092897;28;20380;-50
2023/06/17 02:08:23;;;;;;;6.05;3.85;;;;;;;25.58;55.22;100885.25;5093374;28;20515;-49
2023/06/17 02:10:51;;;;;;;4.65;3.67;;;;;;;25.57;55.20;100875.44;5091978;28;20056;-57
2023/06/17 02:13:18;;;;;;;5.97;3.50;;;;;;;25.56;55.24;100880.03;5091802;28;20085;-57
2023/06/17 02:15:46;;;;;;;7.68;3.58;;;;;;;25.56;55.23;100882.72;5092396;28;20044;-57
2023/06/17 02:18:14;;;;;;;5.35;3.25;;;;;;;25.55;55.28;100881.00;5095933;28;20052;-57
2023/06/17 02:20:45;;;;;;;4.72;3.28;;;;;;;25.55;55.25;100886.44;5097358;28;20051;-52
2023/06/17 02:23:12;;;;;;;5.38;3.28;;;;;;;25.55;55.50;100889.16;5096190;28;20361;-52
2023/06/17 02:25:39;;;;;;;5.22;3.08;;;;;;;25.55;55.50;100881.00;5096035;28;20040;-51
2023/06/17 02:28:07;;;;;;;4.53;3.53;;;;;;;25.56;55.67;100890.00;5096678;28;20055;-50
2023/06/17 02:30:34;;;;;;;4.25;3.40;;;;;;;25.55;55.76;100878.31;5096232;28;20047;-56
2023/06/17 02:33:03;;;;;;;7.70;4.30;;;;;;;25.54;55.79;100876.63;5096260;28;20071;-51
2023/06/17 02:35:30;;;;;;;3.95;3.25;;;;;;;25.53;55.84;100866.81;5095789;28;20056;-50
2023/06/17 02:37:59;;;;;;;3.88;2.95;;;;;;;25.54;55.87;100868.50;5096004;28;20055;-50
2023/06/17 02:40:26;;;;;;;5.28;3.60;;;;;;;25.54;55.69;100875.78;5097180;28;20047;-51
2023/06/17 02:42:54;;;;;;;5.15;3.70;;;;;;;25.54;55.75;100870.34;5096961;28;20047;-50
2023/06/17 02:45:21;;;;;;;5.38;3.83;;;;;;;25.53;55.87;100869.50;5096608;28;20047;-51
2023/06/17 02:47:50;;;;;;;6.80;3.60;;;;;;;25.53;55.82;100865.97;5096270;28;20056;-50
2023/06/17 02:50:23;;;;;;;3.90;3.05;;;;;;;25.54;55.77;100870.34;5094048;28;20499;-51
2023/06/17 02:52:57;;;;;;;5.47;3.55;;;;;;;25.53;55.84;100863.25;5095282;28;20051;-50
2023/06/17 02:55:29;;;;;;;5.45;3.67;;;;;;;25.53;55.68;100869.50;5095480;28;20059;-50
2023/06/17 02:58:00;;;;;;;4.97;3.65;;;;;;;25.52;55.63;100873.25;5095233;28;20052;-50
2023/06/17 03:00:35;;;;;;;5.05;3.25;;;;;;;25.52;55.79;100870.53;5095763;28;20045;-56
2023/06/17 03:03:03;;;;;;;4.20;2.90;;;;;;;25.52;55.77;100869.66;5094908;28;20059;-56
2023/06/17 03:05:31;;;;;;;5.03;3.33;;;;;;;25.52;55.52;100877.78;5095192;28;20044;-57
2023/06/17 03:07:58;;;;;;;5.40;3.83;;;;;;;25.52;55.70;100877.78;5095247;28;20060;-57
2023/06/17 03:10:26;;;;;;;5.43;3.90;;;;;;;25.51;55.85;100879.66;5094728;28;20098;-57
2023/06/17 03:13:11;;;;;;;7.18;4.00;;;;;;;25.50;55.57;100877.97;5095153;28;20074;-51
2023/06/17 03:15:42;;;;;;;6.15;3.72;;;;;;;25.51;55.55;100890.50;5094683;28;20075;-51
2023/06/17 03:18:10;;;;;;;4.82;4.00;;;;;;;25.50;55.48;100896.13;5095056;28;20056;-51
2023/06/17 03:20:38;;;;;;;6.22;3.97;;;;;;;25.50;55.50;100888.81;5096275;28;20052;-57
2023/06/17 03:23:06;;;;;;;5.50;3.30;;;;;;;25.50;55.23;100891.53;5095005;28;20063;-57
2023/06/17 03:25:34;;;;;;;5.28;3.17;;;;;;;25.48;55.08;100896.31;5096049;28;20044;-57
2023/06/17 03:28:02;;;;;;;7.30;2.83;;;;;;;25.48;54.81;100893.59;5094142;28;20052;-57
2023/06/17 03:30:31;;;;;;;6.00;3.15;;;;;;;25.50;54.95;100898.81;5095215;28;20063;-57
2023/06/17 03:33:01;;;;;;;4.45;2.85;;;;;;;25.49;54.82;100902.56;5094722;28;20571;-50
2023/06/17 03:35:30;;;;;;;3.70;2.83;;;;;;;25.48;54.74;100904.44;5094905;28;20048;-49
2023/06/17 03:37:57;;;;;;;4.47;3.25;;;;;;;25.48;54.81;100903.56;5078347;28;20048;-50
2023/06/17 03:40:25;;;;;;;4.22;3.10;;;;;;;25.48;54.81;100906.25;5094672;28;20048;-53
2023/06/17 03:42:54;;;;;;;6.35;3.13;;;;;;;25.47;54.66;100894.59;5094670;28;20052;-57
2023/06/17 03:45:22;;;;;;;4.00;3.22;;;;;;;25.48;54.84;100908.97;5094558;28;20044;-57
2023/06/17 03:47:51;;;;;;;5.97;3.50;;;;;;;25.47;54.78;100897.28;5094443;28;20499;-57
2023/06/17 03:50:19;;;;;;;4.07;2.83;;;;;;;25.46;54.96;100906.44;5093929;28;20051;-57
2023/06/17 03:52:47;;;;;;;3.80;2.90;;;;;;;25.47;54.64;100910.00;5094812;28;20039;-57
2023/06/17 03:55:16;;;;;;;5.47;3.33;;;;;;;25.44;54.98;100916.59;5094011;28;20059;-57
2023/06/17 03:57:43;;;;;;;4.28;3.22;;;;;;;25.38;54.45;100906.44;5093739;28;20047;-55
2023/06/17 04:00:13;;;;;;;4.70;3.28;;;;;;;25.37;54.30;100899.34;5094685;28;20048;-55
2023/06/17 04:02:44;;;;;;;6.55;3.40;;;;;;;25.31;53.92;100910.84;5095357;28;20052;-58
2023/06/17 04:05:20;;;;;;;5.20;3.63;;;;;;;25.24;53.93;100899.00;5094101;28;20059;-57
2023/06/17 04:07:48;;;;;;;4.55;3.22;;;;;;;25.20;53.92;100911.19;5094467;28;20059;-57
2023/06/17 04:10:16;;;;;;;4.30;3.42;;;;;;;25.15;53.90;100911.69;5093965;28;20068;-57
2023/06/17 04:12:44;;;;;;;5.80;3.90;;;;;;;25.12;53.72;100915.59;5095248;28;20047;-54
2023/06/17 04:15:11;;;;;;;7.57;4.05;;;;;;;25.08;53.72;100919.63;5094316;28;20091;-54
2023/06/17 04:17:39;;;;;;;4.85;3.72;;;;;;;25.03;53.75;100911.13;5093618;28;20044;-52
2023/06/17 04:20:10;;;;;;;3.45;3.15;;;;;;;25.02;53.51;100906.75;5093597;28;20055;-51
2023/06/17 04:22:39;;;;;;;5.03;3.78;;;;;;;24.99;53.90;100912.47;5094087;28;20048;-57
2023/06/17 04:25:12;;;;;;;5.03;3.60;;;;;;;24.96;53.97;100917.41;5094852;28;20056;-58
2023/06/17 04:27:44;;;;;;;3.97;3.58;;;;;;;24.93;53.89;100921.28;5093528;28;20052;-57
2023/06/17 04:30:13;;;;;;;6.38;3.95;;;;;;;24.91;54.10;100921.47;5092925;28;20040;-58
2023/06/17 04:32:42;;;;;;;6.00;3.40;;;;;;;24.91;54.05;100921.47;5093826;28;20407;-58
2023/06/17 04:35:12;;;;;;;4.80;3.50;;;;;;;24.90;53.99;100924.31;5094544;28;20056;-57
2023/06/17 04:37:49;;;;;;;;;;;;;;;24.86;54.41;100923.81;5093881;28;20118;-58
2023/06/17 04:40:16;;;;;;;5.32;3.90;;;;;;;24.85;53.98;100923.97;5094092;28;19920;-57
2023/06/17 04:42:44;;;;;;;4.63;4.07;;;;;;;24.85;54.13;100926.69;5094915;28;20052;-55
2023/06/17 04:45:13;;;;;;;4.90;3.83;;;;;;;24.83;54.07;100932.28;5093374;28;20411;-52
2023/06/17 04:47:42;;;;;;;4.88;3.85;;;;;;;24.81;54.22;100934.28;5072690;28;20056;-55
2023/06/17 04:50:09;;;;;;;4.90;3.53;;;;;;;24.80;54.39;100932.59;5074254;28;20041;-53
2023/06/17 04:52:37;;;;;;;5.35;3.75;;;;;;;24.79;54.52;100932.75;5086774;28;20047;-54
2023/06/17 04:55:05;;;;;;;4.50;3.17;;;;;;;24.78;54.49;100934.63;5091615;28;20403;-55
2023/06/17 04:57:33;;;;;;;5.68;3.95;;;;;;;24.77;54.51;100930.22;5093149;28;20055;-54
2023/06/17 05:00:01;;;;;;;5.85;4.18;;;;;;;24.78;54.56;100944.59;5092463;28;20059;-55
2023/06/17 05:02:29;;;;;;;4.53;3.63;;;;;;;24.77;54.70;100945.63;5092202;28;20048;-57
2023/06/17 05:04:57;;;;;;;4.75;3.53;;;;;;;24.74;54.54;100944.09;5092672;28;20487;-57
2023/06/17 05:07:24;;;;;;;5.03;3.80;;;;;;;24.74;54.28;100948.66;5092237;28;20419;-58
2023/06/17 05:09:52;;;;;;;5.95;3.85;;;;;;;24.73;54.37;100946.97;5092324;28;20075;-58
2023/06/17 05:12:19;;;;;;;6.03;4.05;;;;;;;24.72;54.47;100940.72;5092692;28;20071;-53
2023/06/17 05:14:47;;;;;;;5.53;3.72;;;;;;;24.73;54.75;100947.81;5093960;28;20048;-54
2023/06/17 05:17:14;;;;;;;5.22;3.92;;;;;;;24.73;54.93;100952.38;5092710;28;20040;-51
2023/06/17 05:19:42;;;;;;;5.05;4.05;;;;;;;24.72;54.62;100950.69;5093266;28;20063;-52
2023/06/17 05:22:09;;;;;;;5.40;4.38;;;;;;;24.73;55.16;100952.38;5092838;28;20055;-58
2023/06/17 05:24:37;;;;;;;5.03;4.22;;;;;;;24.73;55.08;100953.22;5093846;28;20488;-58
2023/06/17 05:27:08;;;;;;;6.63;4.68;;;;;;;24.73;55.29;100957.78;5092569;28;20051;-58
2023/06/17 05:29:35;;;;;;;5.05;4.55;;;;;;;24.73;55.33;100957.78;5092642;28;20048;-57
2023/06/17 05:32:07;;;;;;;5.53;4.50;;;;;;;24.75;55.38;100962.00;5092734;28;20075;-53
2023/06/17 05:34:34;;;;;;;5.80;4.82;;;;;;;24.75;55.54;100962.00;5092843;28;20052;-50
2023/06/17 05:37:02;;;;;;;6.07;4.65;;;;;;;24.76;55.67;100957.47;5093415;28;20408;-54
2023/06/17 05:39:30;;;;;;;6.25;4.72;;;;;;;24.78;55.49;100966.25;5091624;28;20052;-52
2023/06/17 05:41:57;;;;;;;7.25;4.30;;;;;;;24.78;55.43;100966.25;5092476;28;20059;-52
2023/06/17 05:44:25;;;;;;;6.13;4.40;;;;;;;24.79;55.59;100962.53;5091746;28;20416;-53
2023/06/17 05:46:52;;;;;;;4.50;3.95;;;;;;;24.80;55.67;100959.69;5091652;28;20058;-50
2023/06/17 05:49:20;;;;;;;5.75;3.97;;;;;;;24.82;56.00;100959.50;5092491;28;20044;-53
2023/06/17 05:51:47;;;;;;;5.95;4.65;;;;;;;24.82;55.90;100962.22;5091343;28;20048;-57
2023/06/17 05:54:15;;;;;;;6.20;5.28;;;;;;;24.82;56.19;100967.63;5090247;28;20055;-57
2023/06/17 05:56:42;;;;;;;7.68;5.85;;;;;;;24.83;56.14;100969.31;5093671;28;20048;-58
2023/06/17 05:59:10;;;;;;;6.15;5.55;;;;;;;24.84;56.24;100979.16;5092535;28;20585;-57
2023/06/17 06:01:40;;;;;;;6.22;5.45;;;;;;;24.84;55.98;100982.72;5092230;28;20055;-54
2023/06/17 06:04:07;;;;;;;7.07;4.78;;;;;;;24.85;55.81;100978.97;5092555;28;20060;-54
2023/06/17 06:06:35;;;;;;;4.88;4.38;;;;;;;24.85;55.98;100984.41;5093261;28;20048;-53
2023/06/17 06:09:03;;;;;;;6.18;5.35;;;;;;;24.86;56.07;100987.94;5092826;28;20052;-53
2023/06/17 06:11:30;;;;;;;5.95;5.43;;;;;;;24.87;55.94;100989.63;5092722;28;20051;-53
2023/06/17 06:13:58;;;;;;;5.80;4.68;;;;;;;24.88;55.67;100985.94;5091773;28;20055;-54
2023/06/17 06:16:25;;;;;;;6.45;4.82;;;;;;;24.87;55.85;100995.94;5091579;28;20500;-51
2023/06/17 06:18:54;;;;;;;6.28;4.68;;;;;;;24.89;56.06;100991.19;5093474;28;20353;-54
2023/06/17 06:21:22;;;;;;;5.82;5.18;;;;;;;24.92;55.63;100984.59;5092177;28;20059;-51
2023/06/17 06:23:49;;;;;;;5.50;4.53;;;;;;;24.92;56.05;100992.72;5092203;28;20051;-54
2023/06/17 06:26:17;;;;;;;7.10;4.97;;;;;;;24.93;56.08;100989.00;5091607;28;20056;-53
2023/06/17 06:28:44;;;;;;;5.88;5.13;;;;;;;24.95;56.06;100983.41;5091666;28;20048;-53
2023/06/17 06:31:12;;;;;;;5.95;4.85;;;;;;;24.97;56.07;100992.22;5091281;28;20051;-53
2023/06/17 06:33:40;;;;;;;6.20;4.90;;;;;;;24.96;56.29;100985.97;5093404;28;20048;-54
2023/06/17 06:36:09;;;;;;;5.45;4.90;;;;;;;24.98;56.11;100991.22;5092170;28;20055;-53
2023/06/17 06:38:37;;;;;;;6.32;5.38;;;;;;;24.99;56.09;100995.59;5092204;28;20055;-54
2023/06/17 06:41:04;;;;;;;6.85;5.63;;;;;;;24.99;56.21;100991.03;5093031;28;20055;-57
2023/06/17 06:43:37;;;;;;;5.35;4.82;;;;;;;25.01;55.94;100988.19;5091783;28;20055;-57
2023/06/17 06:46:13;;;;;;;5.80;5.05;;;;;;;25.03;56.14;100991.56;5091630;28;20048;-57
2023/06/17 06:48:42;;;;;;;5.80;4.63;;;;;;;25.04;56.12;100987.84;5091741;28;20169;-57
2023/06/17 06:51:10;;;;;;;7.80;5.25;;;;;;;25.05;55.99;100995.81;5091698;28;20063;-53
2023/06/17 06:53:38;;;;;;;5.10;4.60;;;;;;;25.06;55.95;100994.78;5091366;28;20051;-51
2023/06/17 06:56:05;;;;;;;5.30;4.78;;;;;;;25.07;55.91;101001.03;5089278;28;20044;-53
2023/06/17 06:58:36;;;;;;;6.13;5.15;;;;;;;25.07;55.73;100992.91;5091773;28;20052;-52
2023/06/17 07:01:05;;;;;;;5.45;4.72;;;;;;;25.09;55.97;100999.06;5092071;28;20048;-55
2023/06/17 07:03:33;;;;;;;5.75;4.72;;;;;;;25.11;55.89;100994.31;5094830;28;20059;-54
2023/06/17 07:06:00;;;;;;;6.63;5.68;;;;;;;25.11;55.83;100992.44;5095381;28;20377;-54
2023/06/17 07:08:28;;;;;;;6.85;5.78;;;;;;;25.11;55.70;100992.44;5096698;28;20067;-54
2023/06/17 07:10:55;;;;;;;5.82;5.22;;;;;;;25.13;56.07;100993.13;5094620;28;20051;-55
2023/06/17 07:13:24;;;;;;;5.70;4.85;;;;;;;25.14;55.88;100992.13;5095023;28;20052;-55
2023/06/17 07:15:52;;;;;;;5.78;4.82;;;;;;;25.15;55.71;100985.69;5095006;28;20063;-54
2023/06/17 07:18:20;;;;;;;5.72;5.13;;;;;;;25.17;55.84;100984.69;5094197;28;20040;-53
2023/06/17 07:20:47;;;;;;;6.68;4.72;;;;;;;25.18;55.83;100994.50;5096122;28;20044;-57
2023/06/17 07:23:14;;;;;;;6.45;5.10;;;;;;;25.20;55.71;100992.47;5095418;28;20063;-57
2023/06/17 07:25:42;;;;;;;5.68;5.07;;;;;;;25.21;55.96;100983.34;5095854;28;20048;-57
2023/06/17 07:28:09;;;;;;;5.07;4.57;;;;;;;25.23;56.02;100984.00;5077412;28;20055;-57
2023/06/17 07:30:40;;;;;;;5.65;4.93;;;;;;;25.25;55.98;100992.81;5095181;28;20052;-54
2023/06/17 07:33:07;;;;;;;5.70;4.95;;;;;;;25.28;56.00;100987.06;5094281;28;20052;-57
2023/06/17 07:35:35;;;;;;;6.75;4.65;;;;;;;25.30;55.89;100993.16;5094442;28;20075;-52
2023/06/17 07:38:02;;;;;;;5.20;4.63;;;;;;;25.31;55.73;100997.56;5095665;28;20040;-53
2023/06/17 07:40:30;;;;;;;5.53;5.03;;;;;;;25.32;55.79;100999.25;5094774;28;20063;-54
2023/06/17 07:42:57;;;;;;;5.85;5.25;;;;;;;25.31;55.38;101000.28;5095625;28;20048;-54
2023/06/17 07:45:24;;;;;;;6.50;5.35;;;;;;;25.26;55.40;100992.66;5095522;28;20043;-54
2023/06/17 07:47:55;;;;;;;6.20;4.78;;;;;;;25.27;54.50;100988.91;5095637;28;20048;-52
2023/06/17 07:50:22;;;;;;;6.03;5.35;;;;;;;25.31;54.37;100997.56;5095548;28;20048;-50
2023/06/17 07:52:50;;;;;;;9.43;6.43;;;;;;;25.28;54.15;100993.34;5095578;28;20044;-53
2023/06/17 07:55:17;;;;;;;8.20;6.30;;;;;;;25.22;54.14;100990.44;5094385;28;20062;-54
2023/06/17 07:57:45;;;;;;;7.28;6.35;;;;;;;25.15;53.80;100988.38;5094788;28;20044;-55
2023/06/17 08:00:13;;;;;;;8.02;6.30;;;;;;;25.15;53.42;100982.97;5094885;28;20075;-52
2023/06/17 08:02:42;;;;;;;8.30;7.32;;;;;;;25.13;53.83;100985.00;5095368;28;20040;-54
2023/06/17 08:05:10;;;;;;;10.00;7.15;;;;;;;25.05;53.43;100978.69;5094945;28;20071;-51
2023/06/17 08:07:37;;;;;;;6.90;5.93;;;;;;;25.03;52.91;100984.25;5094883;28;20048;-55
2023/06/17 08:10:06;;;;;;;8.80;6.78;;;;;;;24.97;52.72;100982.25;5095193;28;20047;-53
2023/06/17 08:12:36;;;;;;;6.60;6.00;;;;;;;24.96;52.49;100985.97;5095212;28;20039;-54
2023/06/17 08:15:05;;;;;;;5.50;4.88;;;;;;;24.97;52.32;100979.53;5094134;28;20048;-51
2023/06/17 08:17:32;;;;;;;7.50;6.65;;;;;;;24.98;52.40;100977.66;5095175;28;20058;-54
2023/06/17 08:20:00;;;;;;;7.60;6.22;;;;;;;24.95;52.71;100968.00;5094241;28;20033;-54
2023/06/17 08:22:27;;;;;;;9.25;7.03;;;;;;;24.92;52.43;100973.78;5095018;28;20422;-53
2023/06/17 08:24:54;;;;;;;8.70;7.47;;;;;;;24.90;52.63;100970.38;5095236;28;20055;-50
2023/06/17 08:27:22;;;;;;;8.45;7.57;;;;;;;24.81;52.36;100972.19;5094622;28;20492;-51
2023/06/17 08:29:49;;;;;;;9.15;7.15;;;;;;;24.79;52.74;100971.50;5094777;28;20040;-50
2023/06/17 08:32:17;;;;;;;8.00;7.20;;;;;;;24.80;52.68;100966.97;5094429;28;20048;-54
2023/06/17 08:34:44;;;;;;;7.68;5.70;;;;;;;24.86;52.86;100963.59;5095166;28;20051;-50
2023/06/17 08:37:11;;;;;;;8.20;7.38;;;;;;;24.88;52.75;100967.00;5094627;28;20051;-51
2023/06/17 08:39:40;;;;;;;9.25;7.85;;;;;;;24.85;53.08;100956.47;5094629;28;20055;-53
2023/06/17 08:42:09;;;;;;;9.57;7.80;;;;;;;24.82;52.77;100968.47;5094799;28;20051;-52
2023/06/17 08:44:41;;;;;;;8.45;7.55;;;;;;;24.83;52.64;100963.91;5094630;28;20468;-53
2023/06/17 08:47:13;;;;;;;9.60;7.75;;;;;;;24.84;52.83;100954.78;5094446;28;20048;-53
2023/06/17 08:49:43;;;;;;;7.00;5.90;;;;;;;24.92;52.85;100958.38;5094768;28;20044;-54
2023/06/17 08:52:13;;;;;;;7.65;6.20;;;;;;;24.98;52.95;100962.25;5094616;28;20048;-52
2023/06/17 08:54:42;;;;;;;6.65;5.63;;;;;;;25.05;52.89;100962.44;5094463;28;20047;-51
2023/06/17 08:57:13;;;;;;;6.60;5.88;;;;;;;25.11;53.01;100959.09;5093156;28;20070;-51
2023/06/17 08:59:41;;;;;;;6.78;5.85;;;;;;;25.13;53.19;100957.91;5094201;28;20044;-51
2023/06/17 09:02:11;;;;;;;8.60;7.70;;;;;;;25.13;53.73;100959.78;5094305;28;20496;-52
2023/06/17 09:04:39;;;;;;;9.88;8.60;;;;;;;25.11;53.84;100951.81;5094546;28;20044;-55
2023/06/17 09:07:09;;;;;;;9.95;7.63;;;;;;;25.11;53.81;100953.69;5094085;28;20491;-54
2023/06/17 09:09:37;;;;;;;10.38;8.55;;;;;;;25.12;53.98;100950.81;5094130;28;20048;-53
2023/06/17 09:12:06;;;;;;;12.48;8.00;;;;;;;25.10;53.80;100950.13;5093739;28;20052;-52
2023/06/17 09:14:34;;;;;;;10.15;7.82;;;;;;;25.12;53.62;100953.53;5094537;28;20051;-54
2023/06/17 09:17:02;;;;;;;9.98;7.50;;;;;;;25.12;53.68;100950.81;5093494;28;20380;-50
2023/06/17 09:19:32;;;;;;;7.30;6.50;;;;;;;25.15;53.63;100953.16;5093871;28;20051;-53
2023/06/17 09:22:11;;;;;;;7.75;6.65;;;;;;;25.18;53.53;100946.59;5093363;28;20044;-55
2023/06/17 09:24:42;;;;;;;9.20;6.78;;;;;;;25.23;53.57;100946.06;5093283;28;20047;-56
2023/06/17 09:27:21;;;;;;;7.97;7.07;;;;;;;25.26;53.58;100949.28;5093788;28;20384;-53
2023/06/17 09:30:06;;;;;;;7.78;6.50;;;;;;;25.29;53.52;100946.25;5093800;28;20051;-53
2023/06/17 09:32:39;;;;;;;8.63;6.72;;;;;;;25.35;53.16;100947.44;5093875;28;20055;-51
2023/06/17 09:35:11;;;;;;;7.95;6.50;;;;;;;25.38;53.46;100936.25;5093253;28;20048;-51
2023/06/17 09:37:39;;;;;;;7.55;6.40;;;;;;;25.40;53.57;100934.22;5094102;28;20059;-50
2023/06/17 09:40:31;;;;;;;7.82;6.53;;;;;;;25.45;53.54;100931.88;5093561;28;20051;-56
2023/06/17 09:43:02;;;;;;;8.77;7.13;;;;;;;25.50;53.68;100929.50;5093566;28;20059;-55
2023/06/17 09:45:54;;;;;;;7.45;6.68;;;;;;;25.55;54.01;100923.53;5093867;28;20044;-56
2023/06/17 09:48:24;;;;;;;;;;;;;;;25.56;54.06;100928.81;5094272;28;20048;-56
2023/06/17 09:50:56;;;;;;;7.80;6.78;;;;;;;25.61;54.12;100925.59;5093391;28;19927;-56
2023/06/17 09:53:29;;;;;;;7.88;7.07;;;;;;;25.63;53.94;100929.81;5092984;28;20055;-56
2023/06/17 09:55:59;;;;;;;9.02;6.95;;;;;;;25.64;53.61;100922.50;5093565;28;20048;-55
2023/06/17 09:58:30;;;;;;;9.82;7.03;;;;;;;25.64;53.12;100919.81;5088318;28;20492;-55
2023/06/17 10:01:00;;;;;;;8.85;6.65;;;;;;;25.62;52.79;100913.72;5093186;28;20039;-55
2023/06/17 10:03:28;;;;;;;7.10;6.40;;;;;;;25.61;52.31;100917.47;5093611;28;20032;-55
2023/06/17 10:06:12;;;;;;;7.90;6.10;;;;;;;25.61;51.96;100917.47;5092948;28;20052;-55
2023/06/17 10:08:42;;;;;;;9.05;6.88;;;;;;;25.61;52.05;100912.03;5092958;28;20048;-55
2023/06/17 10:11:14;;;;;;;8.15;6.95;;;;;;;25.62;52.07;100919.97;5093523;28;20055;-56
2023/06/17 10:13:42;;;;;;;6.68;5.60;;;;;;;25.63;52.15;100918.13;5093020;28;20364;-56
2023/06/17 10:16:14;;;;;;;6.13;5.53;;;;;;;25.66;52.39;100912.34;5092870;28;20044;-55
2023/06/17 10:18:47;;;;;;;6.88;6.18;;;;;;;25.67;51.59;100916.75;5081973;28;20044;-53
2023/06/17 10:21:17;;;;;;;6.53;5.70;;;;;;;25.72;51.05;100913.53;5073421;28;20447;-53
2023/06/17 10:23:45;;;;;;;6.53;5.35;;;;;;;25.75;50.74;100910.47;5072684;28;20063;-53
2023/06/17 10:26:13;;;;;;;7.75;6.00;;;;;;;25.76;50.84;100907.56;5072829;28;20044;-53
2023/06/17 10:28:44;;;;;;;6.85;6.13;;;;;;;25.77;50.88;100909.31;5073217;28;20053;-53
2023/06/17 10:31:28;;;;;;;6.90;5.53;;;;;;;25.76;50.37;100904.88;5072610;28;20036;-54
2023/06/17 10:34:01;;;;;;;8.13;6.68;;;;;;;25.76;50.12;100909.44;5089157;28;20051;-57
2023/06/17 10:36:29;;;;;;;;;;;;;;;25.74;50.14;100908.78;5093167;28;20044;-57
2023/06/17 10:39:06;;;;;;;6.72;6.03;;;;;;;25.75;49.50;100907.75;5096591;28;19920;-54
2023/06/17 10:41:40;;;;;;;6.75;5.85;;;;;;;25.74;48.64;100911.50;5096779;28;20078;-54
2023/06/17 10:44:35;;;;;;;6.50;5.28;;;;;;;25.72;48.00;100898.09;5078672;28;20495;-53
2023/06/17 10:47:14;;;;;;;6.50;5.80;;;;;;;25.72;47.62;100905.38;5087705;28;20040;-52
2023/06/17 10:49:42;;;;;;;7.30;6.07;;;;;;;25.71;47.48;100909.13;5076320;28;20036;-53
2023/06/17 10:52:13;;;;;;;6.20;5.60;;;;;;;25.72;47.79;100908.09;5076901;28;20048;-54
2023/06/17 10:54:52;;;;;;;6.13;4.75;;;;;;;25.73;48.14;100907.09;5076102;28;20477;-54
2023/06/17 10:57:29;;;;;;;6.50;5.55;;;;;;;25.73;48.61;100904.41;5078780;28;20377;-53
2023/06/17 10:59:59;;;;;;;6.03;5.25;;;;;;;25.74;48.63;100906.91;5095431;28;20471;-53
2023/06/17 11:02:27;;;;;;;6.35;5.35;;;;;;;25.75;48.79;100899.63;5096867;28;20052;-52
2023/06/17 11:04:56;;;;;;;6.00;5.25;;;;;;;25.75;48.80;100905.91;5096489;28;20502;-53
2023/06/17 11:07:26;;;;;;;6.75;5.65;;;;;;;25.77;48.98;100903.03;5095730;28;20040;-54
2023/06/17 11:09:54;;;;;;;6.32;5.40;;;;;;;25.77;48.71;100894.91;5096441;28;20051;-53
2023/06/17 11:12:21;;;;;;;6.22;5.38;;;;;;;25.77;48.41;100898.47;5096337;28;20051;-52
2023/06/17 11:14:49;;;;;;;5.63;5.13;;;;;;;25.78;48.70;100893.91;5096047;28;20048;-52
2023/06/17 11:17:16;;;;;;;7.07;5.55;;;;;;;25.78;48.76;100891.19;5096314;28;20040;-53
2023/06/17 11:19:44;;;;;;;5.53;4.53;;;;;;;25.80;48.66;100894.56;5096064;28;20051;-53
2023/06/17 11:22:11;;;;;;;6.40;5.47;;;;;;;25.80;48.85;100891.84;5096463;28;20070;-53
2023/06/17 11:24:38;;;;;;;6.43;5.05;;;;;;;25.82;49.13;100896.09;5096025;28;20048;-52
2023/06/17 11:27:06;;;;;;;6.15;5.43;;;;;;;25.84;49.03;100893.19;5094812;28;20052;-55
2023/06/17 11:29:34;;;;;;;6.97;5.18;;;;;;;25.86;48.95;100883.03;5095062;28;20052;-55
2023/06/17 11:32:02;;;;;;;6.07;5.10;;;;;;;25.87;49.22;100882.00;5095642;28;20047;-55
2023/06/17 11:34:32;;;;;;;7.35;5.15;;;;;;;25.88;49.30;100883.69;5095942;28;20059;-50
2023/06/17 11:37:02;;;;;;;6.47;5.55;;;;;;;25.89;49.39;100885.41;5096212;28;20040;-56